EEL RIVER CAMP CA US current weather conditions

sailwx.info

Wind from 336 at 5 knots gusting 14

Air temperature 30.6° C
Dewpoint 12.9° C

Last reported at 2016-Jun-28 23:28 UTC.
Time now 2016-Jun-29 00:14 UTC

Location: N 40°08' W 123°49'.
View on Google Maps.

See reports from other nearby stations

  
Tides and Currents Weather Stations Pressure Air Temp Water Temp Dewpoint Dewpoint Depression Visibility Wind Speed Wind Dir Waves Ship Positions
date/time (UTC)wind fromknots sea level pressurealtimeterstation pressurevisibilityair tempwater tempwave heightnotes
2016-Jun-28 23:28 336 5 gusting 14 30.6
2016-Jun-28 22:28 048 7 gusting 16 30.6
2016-Jun-28 21:28 059 6 gusting 14 30.6
2016-Jun-28 20:28 061 8 gusting 14 30.0
2016-Jun-28 19:28 087 5 gusting 11 28.9
2016-Jun-28 18:28 082 4 gusting 7 26.1
2016-Jun-28 17:28 137 1 gusting 5 22.8
2016-Jun-28 16:28 089 3 gusting 6 18.9
2016-Jun-28 15:28 217 2 gusting 6 15.6
2016-Jun-28 14:28 054 1 gusting 3 13.9
2016-Jun-28 13:28 352 0 gusting 1 11.7
2016-Jun-28 12:28 294 1 gusting 3 10.6
2016-Jun-28 11:28 10.0
2016-Jun-28 10:28 10.0
2016-Jun-28 09:28 254 1 gusting 3 10.6
2016-Jun-28 08:28 310 1 gusting 3 11.7
2016-Jun-28 07:28 307 2 gusting 4 12.2
2016-Jun-28 06:28 359 2 gusting 9 13.9
2016-Jun-28 05:28 053 6 gusting 12 15.0
2016-Jun-28 04:28 067 4 gusting 11 17.8
2016-Jun-28 03:28 080 5 gusting 10 21.7
2016-Jun-28 02:28 039 5 gusting 11 26.1
2016-Jun-28 01:28 044 5 gusting 11 29.4
2016-Jun-28 00:28 018 5 gusting 14 32.8
2016-Jun-27 23:28 017 5 gusting 14 33.3
2016-Jun-27 22:28 011 4 gusting 12 33.9
2016-Jun-27 21:28 078 5 gusting 13 32.8
2016-Jun-27 20:28 056 6 gusting 13 31.1
2016-Jun-27 19:28 052 6 gusting 11 28.9
2016-Jun-27 18:28 073 4 gusting 7 26.1
2016-Jun-27 17:28 045 3 gusting 7 22.2
2016-Jun-27 16:28 091 3 gusting 6 18.9
2016-Jun-27 15:28 077 3 gusting 6 15.6
2016-Jun-27 14:28 285 1 gusting 3 12.8
2016-Jun-27 13:28 10.6
2016-Jun-27 12:28 344 1 gusting 3 10.0
2016-Jun-27 11:28 312 1 gusting 3 10.6
2016-Jun-27 10:28 325 1 gusting 4 10.6
2016-Jun-27 09:28 324 0 gusting 4 11.7
2016-Jun-27 08:28 272 2 gusting 4 12.2
2016-Jun-27 07:28 033 0 gusting 2 13.9
2016-Jun-27 06:28 357 2 gusting 6 15.6
2016-Jun-27 05:28 347 1 gusting 8 17.2
2016-Jun-27 04:28 068 3 gusting 8 21.1
2016-Jun-27 03:28 095 4 gusting 11 23.9
2016-Jun-27 02:28 026 6 gusting 11 28.3
2016-Jun-27 01:28 046 7 gusting 16 30.0
2016-Jun-27 00:28 033 6 gusting 12 32.2